Latest Weather Observations for Glen Innes Airport

IDN60801

Issued at 12:35 pm EST Wednesday 3 September 2014 (issued every 30 minutes, with the page automatically refreshed every 10 minutes)

About weather observations | Map of weather stations | Latest weather observations for NSW | Other Formats
Station Details ID: 056243 Name: GLEN INNES AIRPORT AWS Lat: -29.68 Lon: 151.69 Height: 1044.3 m
Data from the previous 72 hours. | See also: Recent months for locations in New South Wales
Date/Time
EST
Temp
°C
App
Temp
°C
Dew
Point
Rel
Hum
%
Delta-T
°C
Wind Press
QNH
hPa
Press
MSL
hPa
Rain
since 9 am
mm
Dir
 
Spd
km/h
Gust
km/h
Spd
kts
Gust
kts
03/12:30pm 10.3 1.1 -1.1 45 4.8 SW 37 52 20 28 1012.6 - 0.0
03/12:00pm 9.5 1.4 -0.4 50 4.2 WSW 32 48 17 26 1012.9 1011.2 0.0
03/11:30am 9.1 2.3 0.6 55 3.7 SW 26 35 14 19 1012.9 - 0.0
03/11:00am 8.0 -0.1 0.0 57 3.4 SW 32 44 17 24 1013.4 - 0.0
03/10:30am 7.0 -0.2 0.5 63 2.7 SW 28 39 15 21 1013.5 - 0.0
03/10:00am 6.6 -1.5 0.7 66 2.5 SW 33 44 18 24 1013.3 - 0.0
03/09:30am 5.6 -2.9 1.0 72 1.9 SW 35 52 19 28 1013.4 - 0.0
03/09:00am 4.8 -2.4 0.6 74 1.7 WSW 28 41 15 22 1013.5 1011.9 1.0
03/08:30am 4.7 -2.4 1.2 78 1.5 SW 28 41 15 22 1013.4 - 1.0
03/08:00am 3.8 -3.4 0.8 81 1.2 SW 28 35 15 19 1013.0 - 1.0
03/07:33am 3.4 -4.5 0.8 83 1.1 WSW 32 50 17 27 1012.7 - 1.0
03/07:30am 3.3 -4.9 0.5 82 1.1 WSW 33 50 18 27 1012.7 - 1.0
03/07:00am 2.5 -5.2 0.1 84 1.0 WSW 30 39 16 21 1012.6 - 1.0
03/06:30am 2.8 -4.5 0.0 82 1.1 SSW 28 52 15 28 1012.5 - 1.0
03/06:12am 3.0 -4.1 1.4 89 0.7 SW 28 59 15 32 1012.5 - 1.0
03/06:00am 2.7 -3.5 2.0 95 0.3 SW 24 35 13 19 1012.2 1010.5 1.0
03/05:30am 2.3 -4.4 1.3 93 0.4 SW 26 33 14 18 1011.7 - 1.0
03/05:00am 2.8 -4.4 0.7 86 0.9 WSW 28 37 15 20 1011.7 - 1.0
03/04:30am 2.9 -3.2 0.3 83 1.0 WSW 22 37 12 20 1011.7 - 1.0
03/04:00am 3.0 -4.3 0.2 82 1.1 WSW 28 41 15 22 1011.2 - 1.0
03/03:30am 3.3 -4.3 0.4 81 1.2 WSW 30 39 16 21 1011.2 - 1.0
03/03:00am 3.4 -4.8 0.1 79 1.3 W 33 46 18 25 1011.1 1009.4 1.0
03/02:30am 3.1 -4.6 -0.2 79 1.3 WSW 30 43 16 23 1011.5 - 1.0
03/02:00am 3.4 -4.9 -0.1 78 1.4 WSW 33 46 18 25 1011.9 - 1.0
03/01:30am 3.5 -4.8 0.0 78 1.4 WSW 33 46 18 25 1012.3 - 1.0
03/01:00am 3.8 -4.8 0.3 78 1.4 WSW 35 50 19 27 1012.5 - 1.0
03/12:30am 3.8 -3.8 0.3 78 1.4 WSW 30 41 16 22 1012.7 - 1.0
03/12:00am 4.0 -3.3 0.3 77 1.5 WSW 28 41 15 22 1013.2 1011.5 1.0
 
Date/Time
EST
Temp
°C
App
Temp
°C
Dew
Point
Rel
Hum
%
Delta-T
°C
Wind Press
QNH
hPa
Press
MSL
hPa
Rain
since 9 am
mm
Dir
 
Spd
km/h
Gust
km/h
Spd
kts
Gust
kts
02/11:30pm 4.4 -2.8 0.6 76 1.6 WSW 28 41 15 22 1013.3 - 1.0
02/11:00pm 4.7 -2.9 0.5 74 1.7 WSW 30 43 16 23 1013.4 - 1.0
02/10:30pm 4.7 -2.6 0.3 73 1.8 WSW 28 39 15 21 1013.5 - 1.0
02/10:00pm 4.6 -2.3 0.0 72 1.9 W 26 37 14 20 1013.6 - 1.0
02/09:30pm 5.0 -2.3 0.2 71 2.0 WSW 28 37 15 20 1013.6 - 1.0
02/09:00pm 5.5 -2.7 0.3 69 2.2 WSW 33 44 18 24 1014.0 1012.3 1.0
02/08:30pm 5.5 -0.5 0.9 72 1.9 WSW 22 28 12 15 1013.8 - 1.0
02/08:00pm 5.2 -0.4 1.1 75 1.7 WSW 20 28 11 15 1013.7 - 1.0
02/07:30pm 5.2 -0.8 1.0 74 1.8 WSW 22 30 12 16 1013.5 - 1.0
02/07:00pm 5.9 0.3 1.1 71 2.0 SW 20 28 11 15 1013.4 - 1.0
02/06:30pm 5.5 -0.1 1.1 73 1.9 WSW 20 28 11 15 1013.0 - 1.0
02/06:00pm 6.2 -0.7 0.3 66 2.5 WSW 26 39 14 21 1012.5 1010.9 1.0
02/05:30pm 5.4 -2.6 1.5 76 1.7 SW 33 57 18 31 1012.5 - 0.8
02/05:17pm 6.1 -1.1 0.9 69 2.2 WSW 28 54 15 29 1012.1 - 0.6
02/05:00pm 8.2 1.5 1.4 62 3.0 WSW 26 33 14 18 1011.7 - 0.4
02/04:35pm 9.3 2.7 1.9 60 3.3 WSW 26 57 14 31 1011.5 - 0.4
02/04:30pm 10.0 0.8 1.4 55 3.8 W 39 57 21 31 1011.4 - 0.4
02/04:26pm 10.7 1.7 0.4 49 4.5 W 37 57 20 31 1010.9 - 0.4
02/04:00pm 9.5 1.0 1.2 56 3.6 W 35 50 19 27 1010.9 - 0.4
02/03:31pm 10.1 0.3 3.6 64 3.0 W 44 63 24 34 1010.5 - 0.4
02/03:30pm 10.1 -0.1 3.4 63 3.1 W 46 63 25 34 1010.4 - 0.4
02/03:25pm 11.1 1.3 2.2 54 4.1 W 43 61 23 33 1010.4 - 0.4
02/03:00pm 10.9 2.5 3.5 60 3.5 W 37 52 20 28 1010.2 1008.5 0.4
02/02:30pm 12.0 2.5 4.0 58 3.8 W 43 57 23 31 1010.5 - 0.2
02/02:00pm 10.7 1.6 5.9 72 2.4 W 43 61 23 33 1010.6 - 0.2
02/01:52pm 10.7 2.0 6.1 73 2.3 W 41 61 22 33 1010.5 - 0.2
02/01:30pm 14.0 6.0 3.8 50 4.9 W 35 46 19 25 1010.4 - 0.0
02/01:00pm 14.1 5.8 2.4 45 5.5 W 35 46 19 25 1010.6 - 0.0
02/12:38pm 14.9 6.1 1.4 40 6.2 W 37 57 20 31 1010.6 - 0.0
02/12:30pm 15.7 8.2 3.5 44 5.9 W 32 43 17 23 1010.6 - 0.0
02/12:00pm 14.7 9.5 3.5 47 5.4 NW 20 32 11 17 1011.1 1009.4 0.0
02/11:30am 12.9 9.0 3.3 52 4.5 NW 13 20 7 11 1011.4 - 0.0
02/11:00am 12.1 6.8 2.0 50 4.6 W 19 28 10 15 1012.5 - 0.0
02/10:30am 12.5 6.4 2.9 52 4.5 W 24 39 13 21 1012.7 - 0.0
02/10:00am 12.5 4.9 2.9 52 4.5 W 32 41 17 22 1013.2 - 0.0
02/09:30am 12.1 5.5 4.1 58 3.8 WNW 28 39 15 21 1013.5 - 0.0
02/09:00am 11.3 3.7 2.9 56 3.9 W 32 41 17 22 1013.5 1011.9 0.0
02/08:30am 12.2 6.3 3.9 57 4.0 NNW 24 32 13 17 1013.0 - 0.0
02/08:00am 11.7 5.7 3.5 57 3.9 NNW 24 33 13 18 1013.3 - 0.0
02/07:30am 10.2 6.7 3.7 64 3.0 N 11 15 6 8 1013.3 - 0.0
02/07:16am 8.1 5.6 4.7 79 1.6 N 7 11 4 6 1013.4 - 0.0
02/07:00am 2.8 0.3 1.6 92 0.5 WNW 4 7 2 4 1013.3 - 0.0
02/06:30am 3.0 1.4 2.4 96 0.3 CALM 0 0 0 0 1013.4 - 0.0
02/06:00am 2.0 0.0 0.2 88 0.7 CALM 0 0 0 0 1013.4 1011.8 0.0
02/05:30am 2.3 0.6 1.6 95 0.3 CALM 0 0 0 0 1013.3 - 0.0
02/05:00am 2.5 0.7 1.5 93 0.4 CALM 0 0 0 0 1013.5 - 0.0
02/04:30am 2.6 1.0 2.3 98 0.1 CALM 0 0 0 0 1013.7 - 0.0
02/04:00am 2.3 0.7 2.2 99 0.0 CALM 0 0 0 0 1014.1 - 0.0
02/03:30am 0.8 -1.1 0.4 97 0.2 CALM 0 0 0 0 1014.2 - 0.0
02/03:00am 2.6 1.0 2.3 98 0.1 CALM 0 0 0 0 1014.6 1013.0 0.0
02/02:30am 2.4 -0.1 1.7 95 0.3 SSW 4 7 2 4 1014.7 - 0.0
02/02:00am 2.4 -0.5 1.5 94 0.4 SSW 6 6 3 3 1015.2 - 0.0
02/01:30am 4.0 2.4 2.2 88 0.8 CALM 0 0 0 0 1015.6 - 0.0
02/01:00am 4.6 3.0 2.6 87 0.9 CALM 0 0 0 0 1016.0 - 0.0
02/12:30am 5.5 3.2 3.0 84 1.1 SSW 4 6 2 3 1016.1 - 0.0
02/12:00am 3.8 1.2 3.1 95 0.3 SSW 6 7 3 4 1016.4 1014.8 0.0
 
Date/Time
EST
Temp
°C
App
Temp
°C
Dew
Point
Rel
Hum
%
Delta-T
°C
Wind Press
QNH
hPa
Press
MSL
hPa
Rain
since 9 am
mm
Dir
 
Spd
km/h
Gust
km/h
Spd
kts
Gust
kts
01/11:30pm 3.4 1.7 1.8 89 0.7 CALM 0 0 0 0 1016.6 - 0.0
01/11:00pm 3.7 1.9 0.9 82 1.2 CALM 0 0 0 0 1017.2 - 0.0
01/10:30pm 5.9 4.3 2.7 80 1.4 CALM 0 0 0 0 1017.4 - 0.0
01/10:00pm 5.8 4.1 2.1 77 1.6 CALM 0 4 0 2 1017.6 - 0.0
01/09:30pm 6.9 3.7 2.8 75 1.8 W 9 11 5 6 1017.8 - 0.0
01/09:00pm 7.1 3.9 3.2 76 1.8 W 9 9 5 5 1017.8 1016.3 0.0
01/08:30pm 7.3 3.7 3.2 75 1.8 WNW 11 13 6 7 1017.9 - 0.0
01/08:00pm 7.9 3.6 3.2 72 2.1 WNW 15 17 8 9 1017.8 - 0.0
01/07:30pm 8.1 4.2 3.4 72 2.1 NW 13 15 7 8 1017.9 - 0.0
01/06:00pm 9.9 6.5 3.9 66 2.8 W 11 13 6 7 1017.5 1016.0 0.0
01/05:30pm 11.8 8.5 4.3 60 3.6 W 11 15 6 8 1017.3 - 0.0
01/03:30pm 16.2 12.0 5.5 49 5.4 W 17 24 9 13 1016.6 - 0.0
01/03:00pm 15.6 10.8 4.9 49 5.3 W 19 26 10 14 1017.2 1015.6 0.0
01/02:30pm 15.9 10.8 4.3 46 5.7 W 20 28 11 15 1017.3 - 0.0
01/02:00pm 15.0 9.6 4.4 49 5.2 W 22 33 12 18 1017.8 - 0.0
01/01:30pm 16.6 11.0 5.3 47 5.7 W 24 35 13 19 1017.9 - 0.0
01/01:00pm 16.0 9.8 4.4 46 5.7 W 26 32 14 17 1018.4 - 0.0
01/12:30pm 16.5 11.2 4.9 46 5.8 WNW 22 35 12 19 1018.9 - 0.0
01/12:00pm 15.8 11.0 5.4 50 5.2 WNW 20 32 11 17 1019.0 1017.5 0.0
01/11:30am 14.5 9.5 4.8 52 4.8 NW 20 33 11 18 1019.3 - 0.0
01/11:00am 14.9 9.2 4.9 51 5.0 NW 24 33 13 18 1019.8 - 0.0
01/10:30am 13.1 7.3 4.5 56 4.2 W 24 30 13 16 1020.2 - 0.0
01/10:00am 13.8 9.2 6.7 62 3.6 NW 20 32 11 17 1020.5 - 0.0
01/09:30am 13.1 9.0 8.0 71 2.7 WNW 19 26 10 14 1020.7 - 0.0
01/09:00am 12.4 8.4 9.2 81 1.7 NW 20 28 11 15 1020.9 1019.5 0.0
01/08:30am 11.1 8.8 10.6 97 0.3 WNW 13 17 7 9 1020.9 - 0.0
01/08:00am 9.3 - 9.7 - - NNW 7 9 4 5 1020.7 - 0.0
01/07:30am 8.1 - 8.5 - - NNE 6 7 3 4 1020.6 - 0.0
01/07:00am 8.3 - 8.7 - - NNE 6 7 3 4 1020.4 - 0.0
01/06:30am 8.3 - 8.7 - - N 6 9 3 5 1020.0 - 0.0
01/06:00am 8.3 - 8.7 - - NNE 7 11 4 6 1019.7 1018.2 0.0
01/05:30am 8.5 - 8.9 - - NNE 7 11 4 6 1019.5 - 0.0
01/05:00am 8.3 - 8.7 - - ENE 7 9 4 5 1019.3 - 0.0
01/04:30am 8.1 - 8.5 - - SE 7 9 4 5 1019.2 - 0.0
01/04:00am 6.1 - 6.4 - - SE 7 11 4 6 1018.9 - 0.0
01/03:30am 4.8 1.9 4.8 100 0.0 E 9 13 5 7 1018.8 - 0.0
01/03:00am 6.2 - 6.5 - - E 7 9 4 5 1019.2 1017.7 0.0
01/02:30am 5.5 - 5.6 - - E 9 11 5 6 1019.3 - 0.0
01/02:00am 5.3 2.9 5.3 100 0.0 E 7 9 4 5 1019.5 - 0.0
01/01:30am 5.6 3.5 5.6 100 0.0 SE 6 9 3 5 1019.7 - 0.0
01/01:00am 5.5 3.2 5.5 100 0.0 ESE 7 9 4 5 1019.8 - 0.0
01/12:30am 5.3 2.5 5.3 100 0.0 E 9 13 5 7 1020.0 - 0.0
01/12:00am 5.1 - 5.2 - - SE 7 9 4 5 1020.2 1018.7 0.0
 
Date/Time
EST
Temp
°C
App
Temp
°C
Dew
Point
Rel
Hum
%
Delta-T
°C
Wind Press
QNH
hPa
Press
MSL
hPa
Rain
since 9 am
mm
Dir
 
Spd
km/h
Gust
km/h
Spd
kts
Gust
kts
31/11:30pm 4.4 1.4 4.3 99 0.0 SSE 9 9 5 5 1020.3 - 0.0
31/11:00pm 4.1 1.3 3.1 93 0.4 SSE 7 7 4 4 1020.2 - 0.0
31/10:30pm 4.1 0.8 2.6 90 0.6 SE 9 9 5 5 1019.9 - 0.0
31/10:00pm 5.5 2.7 5.1 97 0.2 ESE 9 11 5 6 1020.0 - 0.0
31/09:30pm 6.3 3.1 5.3 93 0.5 E 11 13 6 7 1020.0 - 0.0
31/09:00pm 4.3 1.3 1.7 83 1.1 SE 7 9 4 5 1020.0 1019.9 0.0
31/08:30pm 6.2 2.6 3.2 81 1.3 ESE 11 13 6 7 1020.0 - 0.0
31/08:00pm 7.1 5.7 3.5 78 1.6 CALM 0 0 0 0 1019.9 - 0.0
31/07:30pm 7.5 5.7 3.4 75 1.9 WSW 2 6 1 3 1019.8 - 0.0
31/07:00pm 8.0 6.3 4.0 76 1.8 WSW 2 6 1 3 1019.5 - 0.0
31/06:30pm 10.2 7.5 3.7 64 3.0 W 7 7 4 4 1019.2 - 0.0
31/06:00pm 11.7 8.6 3.5 57 3.9 W 9 9 5 5 1018.8 1018.6 0.0
31/05:30pm 13.2 9.9 4.4 55 4.3 W 11 13 6 7 1018.6 - 0.0
31/05:00pm 15.3 11.1 3.8 46 5.6 W 15 20 8 11 1018.5 - 0.0
31/04:30pm 16.2 12.3 3.3 42 6.3 WSW 13 22 7 12 1018.3 - 0.0
31/04:00pm 17.4 13.6 5.7 46 6.0 WSW 15 26 8 14 1018.2 - 0.0
31/03:30pm 16.9 14.0 4.9 45 6.0 SSW 9 17 5 9 1018.1 - 0.0
31/03:00pm 17.3 13.2 4.3 42 6.5 WSW 15 20 8 11 1018.3 1018.1 0.0
31/02:30pm 15.9 12.6 4.3 46 5.7 SW 11 15 6 8 1018.2 - 0.0
31/02:00pm 17.5 14.5 5.8 46 6.0 WSW 11 17 6 9 1018.3 - 0.0
31/01:30pm 16.3 12.3 2.7 40 6.5 WNW 13 24 7 13 1018.6 - 0.0
31/01:00pm 17.0 14.0 6.2 49 5.6 NW 11 20 6 11 1018.8 - 0.0

Other Formats:

Comma delimited format used in spreadsheet applications
http://www.bom.gov.au/fwo/IDN60801/IDN60801.94588.axf

JavaScript Object Notation format (JSON) in row-major order
http://www.bom.gov.au/fwo/IDN60801/IDN60801.94588.json